sensor_id;sensor_type;location;lat;lon;timestamp;pressure;altitude;pressure_sealevel;temperature;humidity
78667;BME280;67983;59.830;30.198;2023-04-24T00:02:16;100546.28;;;15.38;37.53
78667;BME280;67983;59.830;30.198;2023-04-24T00:04:45;100556.00;;;15.39;37.39
78667;BME280;67983;59.830;30.198;2023-04-24T00:07:12;100553.91;;;15.43;37.35
78667;BME280;67983;59.830;30.198;2023-04-24T00:09:42;100546.44;;;15.46;37.50
78667;BME280;67983;59.830;30.198;2023-04-24T00:12:09;100540.69;;;15.51;37.50
78667;BME280;67983;59.830;30.198;2023-04-24T00:14:36;100537.88;;;15.52;37.28
78667;BME280;67983;59.830;30.198;2023-04-24T00:17:08;100548.31;;;15.55;37.43
78667;BME280;67983;59.830;30.198;2023-04-24T00:19:35;100553.25;;;15.60;37.36
78667;BME280;67983;59.830;30.198;2023-04-24T00:22:03;100544.16;;;15.63;37.40
78667;BME280;67983;59.830;30.198;2023-04-24T00:24:30;100539.75;;;15.62;37.44
78667;BME280;67983;59.830;30.198;2023-04-24T00:26:59;100545.25;;;15.60;37.23
78667;BME280;67983;59.830;30.198;2023-04-24T00:29:28;100546.09;;;15.61;37.61
78667;BME280;67983;59.830;30.198;2023-04-24T00:31:55;100537.59;;;15.55;37.57
78667;BME280;67983;59.830;30.198;2023-04-24T00:34:22;100543.50;;;15.49;37.92
78667;BME280;67983;59.830;30.198;2023-04-24T00:36:49;100540.53;;;15.43;37.90
78667;BME280;67983;59.830;30.198;2023-04-24T00:39:23;100546.84;;;15.32;38.28
78667;BME280;67983;59.830;30.198;2023-04-24T00:41:53;100533.88;;;15.28;38.26
78667;BME280;67983;59.830;30.198;2023-04-24T00:44:22;100529.50;;;15.27;38.07
78667;BME280;67983;59.830;30.198;2023-04-24T00:46:50;100524.72;;;15.30;38.21
78667;BME280;67983;59.830;30.198;2023-04-24T00:49:21;100530.91;;;15.31;38.26
78667;BME280;67983;59.830;30.198;2023-04-24T00:51:49;100529.38;;;15.28;38.40
78667;BME280;67983;59.830;30.198;2023-04-24T00:54:17;100527.13;;;15.23;38.45
78667;BME280;67983;59.830;30.198;2023-04-24T00:56:46;100523.59;;;15.23;38.58
78667;BME280;67983;59.830;30.198;2023-04-24T00:59:13;100515.53;;;15.13;38.89
78667;BME280;67983;59.830;30.198;2023-04-24T01:01:44;100529.03;;;15.12;38.87
78667;BME280;67983;59.830;30.198;2023-04-24T01:04:12;100520.59;;;15.07;38.94
78667;BME280;67983;59.830;30.198;2023-04-24T01:06:43;100528.75;;;15.05;39.07
78667;BME280;67983;59.830;30.198;2023-04-24T01:09:11;100523.66;;;15.02;39.26
78667;BME280;67983;59.830;30.198;2023-04-24T01:11:40;100528.16;;;15.02;39.31
78667;BME280;67983;59.830;30.198;2023-04-24T01:14:09;100524.75;;;15.00;39.41
78667;BME280;67983;59.830;30.198;2023-04-24T01:16:36;100515.50;;;15.04;39.19
78667;BME280;67983;59.830;30.198;2023-04-24T01:19:07;100521.56;;;15.06;39.33
78667;BME280;67983;59.830;30.198;2023-04-24T01:21:37;100517.06;;;15.06;39.30
78667;BME280;67983;59.830;30.198;2023-04-24T01:24:06;100525.94;;;15.07;39.33
78667;BME280;67983;59.830;30.198;2023-04-24T01:26:34;100517.22;;;15.05;39.41
78667;BME280;67983;59.830;30.198;2023-04-24T01:29:02;100511.44;;;15.09;39.32
78667;BME280;67983;59.830;30.198;2023-04-24T01:31:29;100507.50;;;15.13;39.23
78667;BME280;67983;59.830;30.198;2023-04-24T01:34:00;100504.47;;;15.18;39.17
78667;BME280;67983;59.830;30.198;2023-04-24T01:36:28;100505.31;;;15.18;39.17
78667;BME280;67983;59.830;30.198;2023-04-24T01:38:56;100488.41;;;15.18;39.19
78667;BME280;67983;59.830;30.198;2023-04-24T01:41:28;100497.84;;;15.22;39.21
78667;BME280;67983;59.830;30.198;2023-04-24T01:43:56;100493.06;;;15.25;39.14
78667;BME280;67983;59.830;30.198;2023-04-24T01:46:23;100500.56;;;15.32;39.18
78667;BME280;67983;59.830;30.198;2023-04-24T01:48:52;100492.13;;;15.36;39.06
78667;BME280;67983;59.830;30.198;2023-04-24T01:51:19;100491.00;;;15.39;38.95
78667;BME280;67983;59.830;30.198;2023-04-24T01:53:46;100488.47;;;15.37;39.11
78667;BME280;67983;59.830;30.198;2023-04-24T01:56:14;100483.41;;;15.34;39.30
78667;BME280;67983;59.830;30.198;2023-04-24T01:58:43;100488.16;;;15.31;39.34
78667;BME280;67983;59.830;30.198;2023-04-24T02:01:17;100490.41;;;15.25;39.50
78667;BME280;67983;59.830;30.198;2023-04-24T02:03:47;100489.97;;;15.20;39.50
78667;BME280;67983;59.830;30.198;2023-04-24T02:06:15;100494.00;;;15.15;39.53
78667;BME280;67983;59.830;30.198;2023-04-24T02:08:42;100488.38;;;15.08;39.81
78667;BME280;67983;59.830;30.198;2023-04-24T02:11:09;100488.53;;;15.07;39.90
78667;BME280;67983;59.830;30.198;2023-04-24T02:13:39;100482.84;;;15.00;39.98
78667;BME280;67983;59.830;30.198;2023-04-24T02:16:08;100485.66;;;14.99;40.00
78667;BME280;67983;59.830;30.198;2023-04-24T02:18:36;100477.06;;;14.95;40.07
78667;BME280;67983;59.830;30.198;2023-04-24T02:21:05;100482.00;;;14.90;40.12
78667;BME280;67983;59.830;30.198;2023-04-24T02:23:34;100493.94;;;14.86;40.33
78667;BME280;67983;59.830;30.198;2023-04-24T02:26:01;100486.16;;;14.83;40.56
78667;BME280;67983;59.830;30.198;2023-04-24T02:28:29;100488.25;;;14.79;40.59
78667;BME280;67983;59.830;30.198;2023-04-24T02:30:56;100482.22;;;14.77;40.44
78667;BME280;67983;59.830;30.198;2023-04-24T02:33:26;100479.09;;;14.72;40.76
78667;BME280;67983;59.830;30.198;2023-04-24T02:35:53;100474.00;;;14.69;40.79
78667;BME280;67983;59.830;30.198;2023-04-24T02:38:20;100477.66;;;14.68;40.80
78667;BME280;67983;59.830;30.198;2023-04-24T02:41:12;100477.09;;;14.64;41.00
78667;BME280;67983;59.830;30.198;2023-04-24T02:43:41;100475.66;;;14.60;41.05
78667;BME280;67983;59.830;30.198;2023-04-24T02:46:11;100465.41;;;14.56;40.96
78667;BME280;67983;59.830;30.198;2023-04-24T02:48:40;100478.75;;;14.56;41.07
78667;BME280;67983;59.830;30.198;2023-04-24T02:51:08;100477.03;;;14.55;40.97
78667;BME280;67983;59.830;30.198;2023-04-24T02:53:35;100463.69;;;14.55;40.99
78667;BME280;67983;59.830;30.198;2023-04-24T02:56:02;100478.47;;;14.59;41.17
78667;BME280;67983;59.830;30.198;2023-04-24T02:58:30;100469.75;;;14.57;41.31
78667;BME280;67983;59.830;30.198;2023-04-24T03:00:57;100466.34;;;14.55;41.22
78667;BME280;67983;59.830;30.198;2023-04-24T03:03:25;100464.16;;;14.60;41.33
78667;BME280;67983;59.830;30.198;2023-04-24T03:05:53;100459.94;;;14.67;41.22
78667;BME280;67983;59.830;30.198;2023-04-24T03:08:21;100469.84;;;14.76;41.17
78667;BME280;67983;59.830;30.198;2023-04-24T03:10:48;100465.78;;;14.82;41.02
78667;BME280;67983;59.830;30.198;2023-04-24T03:13:16;100468.50;;;14.91;40.89
78667;BME280;67983;59.830;30.198;2023-04-24T03:15:44;100463.84;;;14.93;40.84
78667;BME280;67983;59.830;30.198;2023-04-24T03:18:13;100472.56;;;14.95;40.94
78667;BME280;67983;59.830;30.198;2023-04-24T03:20:42;100470.75;;;14.96;40.89
78667;BME280;67983;59.830;30.198;2023-04-24T03:23:14;100458.09;;;14.98;40.85
78667;BME280;67983;59.830;30.198;2023-04-24T03:25:42;100460.53;;;15.01;40.95
78667;BME280;67983;59.830;30.198;2023-04-24T03:28:12;100463.63;;;15.06;40.55
78667;BME280;67983;59.830;30.198;2023-04-24T03:30:51;100471.78;;;15.05;40.76
78667;BME280;67983;59.830;30.198;2023-04-24T03:33:20;100454.91;;;15.04;40.83
78667;BME280;67983;59.830;30.198;2023-04-24T03:35:56;100457.84;;;15.01;40.95
78667;BME280;67983;59.830;30.198;2023-04-24T03:38:26;100460.38;;;15.03;40.91
78667;BME280;67983;59.830;30.198;2023-04-24T03:40:57;100455.19;;;15.01;40.71
78667;BME280;67983;59.830;30.198;2023-04-24T03:43:47;100452.91;;;14.97;40.99
78667;BME280;67983;59.830;30.198;2023-04-24T03:46:17;100448.66;;;14.94;41.04
78667;BME280;67983;59.830;30.198;2023-04-24T03:48:52;100459.63;;;14.91;41.05
78667;BME280;67983;59.830;30.198;2023-04-24T03:51:22;100460.06;;;14.86;41.22
78667;BME280;67983;59.830;30.198;2023-04-24T03:53:53;100461.47;;;14.90;41.13
78667;BME280;67983;59.830;30.198;2023-04-24T03:56:22;100461.91;;;14.95;41.12
78667;BME280;67983;59.830;30.198;2023-04-24T03:58:51;100469.63;;;14.99;40.98
78667;BME280;67983;59.830;30.198;2023-04-24T04:01:21;100457.84;;;15.01;40.88
78667;BME280;67983;59.830;30.198;2023-04-24T04:04:20;100460.09;;;15.06;40.99
78667;BME280;67983;59.830;30.198;2023-04-24T04:06:50;100460.38;;;15.12;40.80
78667;BME280;67983;59.830;30.198;2023-04-24T04:09:20;100450.72;;;15.21;40.53
78667;BME280;67983;59.830;30.198;2023-04-24T04:11:49;100452.84;;;15.27;40.63
78667;BME280;67983;59.830;30.198;2023-04-24T04:14:16;100455.22;;;15.30;40.45
78667;BME280;67983;59.830;30.198;2023-04-24T04:16:46;100457.38;;;15.36;40.19
78667;BME280;67983;59.830;30.198;2023-04-24T04:19:17;100452.00;;;15.46;40.37
78667;BME280;67983;59.830;30.198;2023-04-24T04:21:44;100463.16;;;15.61;39.97
78667;BME280;67983;59.830;30.198;2023-04-24T04:24:30;100451.50;;;15.71;39.74
78667;BME280;67983;59.830;30.198;2023-04-24T04:26:58;100459.69;;;15.79;39.74
78667;BME280;67983;59.830;30.198;2023-04-24T04:29:33;100455.03;;;15.81;39.51
78667;BME280;67983;59.830;30.198;2023-04-24T04:32:01;100456.56;;;15.84;39.46
78667;BME280;67983;59.830;30.198;2023-04-24T04:34:29;100454.59;;;15.86;39.38
78667;BME280;67983;59.830;30.198;2023-04-24T04:37:00;100446.00;;;15.92;39.22
78667;BME280;67983;59.830;30.198;2023-04-24T04:39:46;100448.25;;;15.97;39.07
78667;BME280;67983;59.830;30.198;2023-04-24T04:42:21;100454.56;;;16.05;38.83
78667;BME280;67983;59.830;30.198;2023-04-24T04:44:49;100450.50;;;16.11;38.93
78667;BME280;67983;59.830;30.198;2023-04-24T04:47:21;100448.63;;;16.21;38.57
78667;BME280;67983;59.830;30.198;2023-04-24T04:49:50;100441.56;;;16.30;38.63
78667;BME280;67983;59.830;30.198;2023-04-24T04:52:21;100439.72;;;16.40;38.22
78667;BME280;67983;59.830;30.198;2023-04-24T04:55:01;100447.16;;;16.46;38.07
78667;BME280;67983;59.830;30.198;2023-04-24T04:57:49;100440.94;;;16.55;37.77
78667;BME280;67983;59.830;30.198;2023-04-24T05:00:18;100440.34;;;16.61;37.96
78667;BME280;67983;59.830;30.198;2023-04-24T05:02:51;100437.81;;;16.69;37.59
78667;BME280;67983;59.830;30.198;2023-04-24T05:05:19;100437.22;;;16.76;37.59
78667;BME280;67983;59.830;30.198;2023-04-24T05:07:46;100439.16;;;16.83;37.31
78667;BME280;67983;59.830;30.198;2023-04-24T05:10:15;100449.00;;;16.92;37.05
78667;BME280;67983;59.830;30.198;2023-04-24T05:12:42;100444.72;;;16.99;36.81
78667;BME280;67983;59.830;30.198;2023-04-24T05:15:10;100439.06;;;17.02;36.88
78667;BME280;67983;59.830;30.198;2023-04-24T05:17:38;100429.34;;;17.01;36.57
78667;BME280;67983;59.830;30.198;2023-04-24T05:20:07;100431.94;;;17.11;36.43
78667;BME280;67983;59.830;30.198;2023-04-24T05:22:35;100442.00;;;17.27;36.31
78667;BME280;67983;59.830;30.198;2023-04-24T05:25:03;100438.44;;;17.36;36.06
78667;BME280;67983;59.830;30.198;2023-04-24T05:27:54;100433.69;;;17.48;35.87
78667;BME280;67983;59.830;30.198;2023-04-24T05:30:27;100437.81;;;17.60;35.86
78667;BME280;67983;59.830;30.198;2023-04-24T05:33:02;100434.94;;;17.71;35.77
78667;BME280;67983;59.830;30.198;2023-04-24T05:35:32;100433.72;;;17.83;35.08
78667;BME280;67983;59.830;30.198;2023-04-24T05:38:00;100433.91;;;17.90;35.09
78667;BME280;67983;59.830;30.198;2023-04-24T05:40:30;100430.94;;;17.93;34.99
78667;BME280;67983;59.830;30.198;2023-04-24T05:43:01;100425.94;;;17.98;34.85
78667;BME280;67983;59.830;30.198;2023-04-24T05:45:28;100421.78;;;18.04;34.64
78667;BME280;67983;59.830;30.198;2023-04-24T05:47:58;100417.31;;;18.12;34.74
78667;BME280;67983;59.830;30.198;2023-04-24T05:50:25;100424.50;;;18.30;34.37
78667;BME280;67983;59.830;30.198;2023-04-24T05:52:52;100416.84;;;18.43;34.10
78667;BME280;67983;59.830;30.198;2023-04-24T05:55:25;100425.16;;;18.58;33.74
78667;BME280;67983;59.830;30.198;2023-04-24T05:57:53;100417.31;;;18.64;33.32
78667;BME280;67983;59.830;30.198;2023-04-24T06:00:25;100421.06;;;18.71;33.38
78667;BME280;67983;59.830;30.198;2023-04-24T06:02:59;100417.06;;;18.84;33.20
78667;BME280;67983;59.830;30.198;2023-04-24T06:05:27;100403.81;;;18.90;32.81
78667;BME280;67983;59.830;30.198;2023-04-24T06:07:54;100408.06;;;19.01;32.39
78667;BME280;67983;59.830;30.198;2023-04-24T06:10:25;100414.31;;;19.09;32.83
78667;BME280;67983;59.830;30.198;2023-04-24T06:12:54;100409.81;;;19.18;32.28
78667;BME280;67983;59.830;30.198;2023-04-24T06:15:31;100410.66;;;19.27;32.02
78667;BME280;67983;59.830;30.198;2023-04-24T06:18:05;100411.69;;;19.34;32.06
78667;BME280;67983;59.830;30.198;2023-04-24T06:20:33;100400.63;;;19.45;31.71
78667;BME280;67983;59.830;30.198;2023-04-24T06:23:03;100405.84;;;19.55;31.64
78667;BME280;67983;59.830;30.198;2023-04-24T06:25:32;100402.66;;;19.67;31.18
78667;BME280;67983;59.830;30.198;2023-04-24T06:27:59;100408.75;;;19.78;31.43
78667;BME280;67983;59.830;30.198;2023-04-24T06:30:30;100409.38;;;19.88;30.76
78667;BME280;67983;59.830;30.198;2023-04-24T06:33:00;100397.28;;;19.92;30.69
78667;BME280;67983;59.830;30.198;2023-04-24T06:35:34;100405.19;;;20.02;30.54
78667;BME280;67983;59.830;30.198;2023-04-24T06:42:08;100400.09;;;20.15;29.80
78667;BME280;67983;59.830;30.198;2023-04-24T06:44:40;100390.84;;;20.25;29.98
78667;BME280;67983;59.830;30.198;2023-04-24T06:47:09;100386.25;;;20.34;29.95
78667;BME280;67983;59.830;30.198;2023-04-24T06:49:45;100383.06;;;20.47;29.40
78667;BME280;67983;59.830;30.198;2023-04-24T06:52:13;100384.91;;;20.54;29.32
78667;BME280;67983;59.830;30.198;2023-04-24T06:54:41;100385.50;;;20.65;29.42
78667;BME280;67983;59.830;30.198;2023-04-24T06:57:09;100389.03;;;20.73;29.00
78667;BME280;67983;59.830;30.198;2023-04-24T06:59:41;100385.78;;;20.86;28.72
78667;BME280;67983;59.830;30.198;2023-04-24T07:02:22;100397.53;;;20.93;28.42
78667;BME280;67983;59.830;30.198;2023-04-24T07:04:55;100388.22;;;20.96;28.06
78667;BME280;67983;59.830;30.198;2023-04-24T07:07:24;100392.28;;;21.00;28.42
78667;BME280;67983;59.830;30.198;2023-04-24T07:09:56;100376.56;;;21.03;28.45
78667;BME280;67983;59.830;30.198;2023-04-24T07:12:29;100382.56;;;21.13;27.50
78667;BME280;67983;59.830;30.198;2023-04-24T07:14:56;100387.28;;;21.19;27.58
78667;BME280;67983;59.830;30.198;2023-04-24T07:17:25;100404.59;;;21.33;27.31
78667;BME280;67983;59.830;30.198;2023-04-24T07:19:52;100386.97;;;21.45;27.02
78667;BME280;67983;59.830;30.198;2023-04-24T07:22:20;100385.03;;;21.54;26.98
78667;BME280;67983;59.830;30.198;2023-04-24T07:24:47;100393.41;;;21.59;26.71
78667;BME280;67983;59.830;30.198;2023-04-24T07:27:16;100391.75;;;21.58;26.35
78667;BME280;67983;59.830;30.198;2023-04-24T07:29:45;100390.91;;;21.58;26.39
78667;BME280;67983;59.830;30.198;2023-04-24T07:32:14;100387.03;;;21.60;26.12
78667;BME280;67983;59.830;30.198;2023-04-24T07:34:43;100393.59;;;21.58;26.18
78667;BME280;67983;59.830;30.198;2023-04-24T07:37:37;100392.25;;;21.62;26.08
78667;BME280;67983;59.830;30.198;2023-04-24T07:40:32;100360.38;;;21.57;25.50
78667;BME280;67983;59.830;30.198;2023-04-24T07:43:15;100393.47;;;21.74;25.71
78667;BME280;67983;59.830;30.198;2023-04-24T07:45:42;100384.00;;;21.78;25.37
78667;BME280;67983;59.830;30.198;2023-04-24T07:48:09;100406.19;;;21.88;25.43
78667;BME280;67983;59.830;30.198;2023-04-24T07:50:38;100403.13;;;21.91;25.42
78667;BME280;67983;59.830;30.198;2023-04-24T07:56:00;100388.34;;;22.02;25.13
78667;BME280;67983;59.830;30.198;2023-04-24T07:58:31;100396.41;;;22.10;24.82
78667;BME280;67983;59.830;30.198;2023-04-24T08:00:59;100395.28;;;22.19;24.89
78667;BME280;67983;59.830;30.198;2023-04-24T08:03:26;100389.34;;;22.24;24.40
78667;BME280;67983;59.830;30.198;2023-04-24T08:06:23;100384.78;;;22.24;24.67
78667;BME280;67983;59.830;30.198;2023-04-24T08:09:15;100391.22;;;22.23;24.64
78667;BME280;67983;59.830;30.198;2023-04-24T08:11:44;100382.16;;;22.31;24.91
78667;BME280;67983;59.830;30.198;2023-04-24T08:14:41;100399.34;;;22.38;24.77
78667;BME280;67983;59.830;30.198;2023-04-24T08:17:08;100385.91;;;22.45;24.68
78667;BME280;67983;59.830;30.198;2023-04-24T08:19:35;100388.03;;;22.49;24.13
78667;BME280;67983;59.830;30.198;2023-04-24T08:22:08;100385.81;;;22.53;23.77
78667;BME280;67983;59.830;30.198;2023-04-24T08:25:07;100375.00;;;22.53;23.52
78667;BME280;67983;59.830;30.198;2023-04-24T08:27:37;100386.28;;;22.56;22.99
78667;BME280;67983;59.830;30.198;2023-04-24T08:30:04;100383.94;;;22.53;23.30
78667;BME280;67983;59.830;30.198;2023-04-24T08:32:32;100374.31;;;22.65;22.90
78667;BME280;67983;59.830;30.198;2023-04-24T08:34:59;100390.19;;;22.69;22.94
78667;BME280;67983;59.830;30.198;2023-04-24T08:37:28;100383.38;;;22.73;23.06
78667;BME280;67983;59.830;30.198;2023-04-24T08:39:56;100399.03;;;22.77;22.46
78667;BME280;67983;59.830;30.198;2023-04-24T08:42:23;100387.81;;;22.80;22.42
78667;BME280;67983;59.830;30.198;2023-04-24T08:44:51;100376.69;;;22.83;22.16
78667;BME280;67983;59.830;30.198;2023-04-24T08:47:20;100377.00;;;22.80;22.58
78667;BME280;67983;59.830;30.198;2023-04-24T08:49:50;100380.22;;;22.84;22.46
78667;BME280;67983;59.830;30.198;2023-04-24T08:52:21;100384.88;;;22.90;22.53
78667;BME280;67983;59.830;30.198;2023-04-24T08:54:50;100370.22;;;22.99;22.23
78667;BME280;67983;59.830;30.198;2023-04-24T08:57:20;100374.41;;;23.02;22.35
78667;BME280;67983;59.830;30.198;2023-04-24T08:59:48;100375.22;;;23.02;22.66
78667;BME280;67983;59.830;30.198;2023-04-24T09:02:15;100368.31;;;23.14;22.61
78667;BME280;67983;59.830;30.198;2023-04-24T09:04:44;100370.03;;;23.22;22.49
78667;BME280;67983;59.830;30.198;2023-04-24T09:07:12;100377.22;;;23.30;22.40
78667;BME280;67983;59.830;30.198;2023-04-24T09:09:45;100380.81;;;23.37;22.49
78667;BME280;67983;59.830;30.198;2023-04-24T09:12:16;100374.25;;;23.46;22.31
78667;BME280;67983;59.830;30.198;2023-04-24T09:14:44;100376.19;;;23.52;22.11
78667;BME280;67983;59.830;30.198;2023-04-24T09:17:11;100367.59;;;23.48;22.10
78667;BME280;67983;59.830;30.198;2023-04-24T09:19:38;100368.94;;;23.38;22.50
78667;BME280;67983;59.830;30.198;2023-04-24T09:22:09;100362.09;;;23.42;22.55
78667;BME280;67983;59.830;30.198;2023-04-24T09:24:36;100367.13;;;23.60;22.57
78667;BME280;67983;59.830;30.198;2023-04-24T09:27:03;100369.25;;;23.64;22.17
78667;BME280;67983;59.830;30.198;2023-04-24T09:29:32;100380.53;;;23.68;22.14
78667;BME280;67983;59.830;30.198;2023-04-24T09:32:17;100362.78;;;23.65;22.03
78667;BME280;67983;59.830;30.198;2023-04-24T09:34:47;100365.75;;;23.70;21.84
78667;BME280;67983;59.830;30.198;2023-04-24T09:37:27;100350.53;;;23.69;22.01
78667;BME280;67983;59.830;30.198;2023-04-24T09:40:08;100358.56;;;23.84;21.80
78667;BME280;67983;59.830;30.198;2023-04-24T09:42:37;100353.88;;;23.99;21.88
78667;BME280;67983;59.830;30.198;2023-04-24T09:45:10;100376.38;;;24.21;21.63
78667;BME280;67983;59.830;30.198;2023-04-24T09:47:41;100353.38;;;24.45;21.51
78667;BME280;67983;59.830;30.198;2023-04-24T09:50:13;100374.81;;;24.74;20.85
78667;BME280;67983;59.830;30.198;2023-04-24T09:52:43;100357.53;;;24.89;20.85
78667;BME280;67983;59.830;30.198;2023-04-24T09:55:18;100361.63;;;25.13;20.98
78667;BME280;67983;59.830;30.198;2023-04-24T09:57:53;100365.66;;;25.43;20.67
78667;BME280;67983;59.830;30.198;2023-04-24T10:00:26;100363.00;;;25.70;20.25
78667;BME280;67983;59.830;30.198;2023-04-24T10:02:57;100367.81;;;25.94;19.66
78667;BME280;67983;59.830;30.198;2023-04-24T10:05:30;100370.31;;;26.09;19.23
78667;BME280;67983;59.830;30.198;2023-04-24T10:08:01;100367.13;;;26.32;19.28
78667;BME280;67983;59.830;30.198;2023-04-24T10:10:29;100360.59;;;26.59;18.63
78667;BME280;67983;59.830;30.198;2023-04-24T10:12:57;100370.28;;;27.00;18.06
78667;BME280;67983;59.830;30.198;2023-04-24T10:15:27;100372.84;;;27.33;17.92
78667;BME280;67983;59.830;30.198;2023-04-24T10:17:59;100380.25;;;27.51;17.97
78667;BME280;67983;59.830;30.198;2023-04-24T10:20:28;100364.81;;;27.06;18.21
78667;BME280;67983;59.830;30.198;2023-04-24T10:22:58;100363.09;;;26.67;18.88
78667;BME280;67983;59.830;30.198;2023-04-24T10:25:28;100392.66;;;26.44;19.27
78667;BME280;67983;59.830;30.198;2023-04-24T10:27:56;100377.19;;;26.38;19.04
78667;BME280;67983;59.830;30.198;2023-04-24T10:30:29;100384.09;;;26.01;18.92
78667;BME280;67983;59.830;30.198;2023-04-24T10:33:02;100368.44;;;25.89;19.30
78667;BME280;67983;59.830;30.198;2023-04-24T10:35:32;100410.03;;;25.97;19.37
78667;BME280;67983;59.830;30.198;2023-04-24T10:38:03;100371.16;;;25.96;19.10
78667;BME280;67983;59.830;30.198;2023-04-24T10:40:34;100382.88;;;25.77;19.32
78667;BME280;67983;59.830;30.198;2023-04-24T10:43:07;100375.91;;;25.54;19.58
78667;BME280;67983;59.830;30.198;2023-04-24T10:45:39;100387.78;;;25.40;19.81
78667;BME280;67983;59.830;30.198;2023-04-24T10:48:09;100371.34;;;26.01;19.79
78667;BME280;67983;59.830;30.198;2023-04-24T10:50:43;100375.88;;;26.60;18.95
78667;BME280;67983;59.830;30.198;2023-04-24T10:53:14;100383.78;;;26.75;18.51
78667;BME280;67983;59.830;30.198;2023-04-24T10:55:44;100371.41;;;27.24;18.24
78667;BME280;67983;59.830;30.198;2023-04-24T10:58:16;100374.63;;;28.02;17.79
78667;BME280;67983;59.830;30.198;2023-04-24T11:00:55;100376.09;;;28.84;17.30
78667;BME280;67983;59.830;30.198;2023-04-24T11:03:28;100381.50;;;28.73;16.54
78667;BME280;67983;59.830;30.198;2023-04-24T11:05:58;100372.13;;;28.25;17.29
78667;BME280;67983;59.830;30.198;2023-04-24T11:08:28;100394.06;;;28.37;17.00
78667;BME280;67983;59.830;30.198;2023-04-24T11:11:02;100394.28;;;29.27;16.45
78667;BME280;67983;59.830;30.198;2023-04-24T11:14:05;100381.44;;;29.28;16.28
78667;BME280;67983;59.830;30.198;2023-04-24T11:16:37;100398.16;;;29.20;16.32
78667;BME280;67983;59.830;30.198;2023-04-24T11:19:06;100387.16;;;29.56;15.66
78667;BME280;67983;59.830;30.198;2023-04-24T11:21:43;100387.50;;;29.00;16.39
78667;BME280;67983;59.830;30.198;2023-04-24T11:24:26;100385.06;;;28.37;16.64
78667;BME280;67983;59.830;30.198;2023-04-24T11:26:55;100405.63;;;28.94;16.34
78667;BME280;67983;59.830;30.198;2023-04-24T11:29:38;100402.09;;;29.54;15.89
78667;BME280;67983;59.830;30.198;2023-04-24T11:32:24;100369.91;;;28.96;15.95
78667;BME280;67983;59.830;30.198;2023-04-24T11:34:54;100392.84;;;28.33;17.00
78667;BME280;67983;59.830;30.198;2023-04-24T11:37:22;100410.50;;;27.81;17.49
78667;BME280;67983;59.830;30.198;2023-04-24T11:39:51;100403.94;;;27.19;17.70
78667;BME280;67983;59.830;30.198;2023-04-24T11:42:20;100399.50;;;26.73;18.18
78667;BME280;67983;59.830;30.198;2023-04-24T11:44:50;100384.91;;;26.28;18.78
78667;BME280;67983;59.830;30.198;2023-04-24T11:47:31;100408.56;;;26.01;19.06
78667;BME280;67983;59.830;30.198;2023-04-24T11:50:00;100408.59;;;25.81;19.41
78667;BME280;67983;59.830;30.198;2023-04-24T11:52:27;100393.66;;;25.57;19.43
78667;BME280;67983;59.830;30.198;2023-04-24T11:54:54;100399.94;;;25.57;19.60
78667;BME280;67983;59.830;30.198;2023-04-24T11:57:22;100401.63;;;25.45;19.57
78667;BME280;67983;59.830;30.198;2023-04-24T11:59:54;100400.50;;;25.26;19.89
78667;BME280;67983;59.830;30.198;2023-04-24T12:02:24;100401.53;;;25.19;20.15
78667;BME280;67983;59.830;30.198;2023-04-24T12:04:55;100398.22;;;25.30;20.00
78667;BME280;67983;59.830;30.198;2023-04-24T12:07:23;100406.19;;;25.38;20.00
78667;BME280;67983;59.830;30.198;2023-04-24T12:09:57;100394.84;;;25.21;20.17
78667;BME280;67983;59.830;30.198;2023-04-24T12:12:26;100422.16;;;25.00;20.50
78667;BME280;67983;59.830;30.198;2023-04-24T12:14:54;100409.47;;;24.79;20.73
78667;BME280;67983;59.830;30.198;2023-04-24T12:17:33;100409.38;;;24.59;20.79
78667;BME280;67983;59.830;30.198;2023-04-24T12:20:06;100406.38;;;24.48;21.28
78667;BME280;67983;59.830;30.198;2023-04-24T12:22:45;100402.38;;;24.37;21.39
78667;BME280;67983;59.830;30.198;2023-04-24T12:25:14;100422.69;;;24.26;21.26
78667;BME280;67983;59.830;30.198;2023-04-24T12:27:41;100417.56;;;24.10;21.72
78667;BME280;67983;59.830;30.198;2023-04-24T12:30:12;100418.50;;;23.96;22.04
78667;BME280;67983;59.830;30.198;2023-04-24T12:32:42;100433.34;;;23.78;23.42
78667;BME280;67983;59.830;30.198;2023-04-24T12:35:11;100444.59;;;23.24;24.73
78667;BME280;67983;59.830;30.198;2023-04-24T12:37:42;100457.69;;;22.62;25.97
78667;BME280;67983;59.830;30.198;2023-04-24T12:40:35;100449.06;;;21.91;27.25
78667;BME280;67983;59.830;30.198;2023-04-24T12:43:21;100456.16;;;21.38;27.99
78667;BME280;67983;59.830;30.198;2023-04-24T12:45:51;100464.66;;;20.88;29.00
78667;BME280;67983;59.830;30.198;2023-04-24T12:48:18;100467.44;;;20.39;29.83
78667;BME280;67983;59.830;30.198;2023-04-24T12:50:48;100459.41;;;20.07;30.53
78667;BME280;67983;59.830;30.198;2023-04-24T12:53:15;100471.66;;;19.85;31.37
78667;BME280;67983;59.830;30.198;2023-04-24T12:55:45;100480.63;;;19.43;32.00
78667;BME280;67983;59.830;30.198;2023-04-24T12:58:19;100482.53;;;19.00;32.90
78667;BME280;67983;59.830;30.198;2023-04-24T13:00:50;100486.41;;;18.72;33.67
78667;BME280;67983;59.830;30.198;2023-04-24T13:03:17;100478.22;;;18.30;34.76
78667;BME280;67983;59.830;30.198;2023-04-24T13:05:46;100487.00;;;17.96;35.93
78667;BME280;67983;59.830;30.198;2023-04-24T13:08:15;100494.28;;;17.68;37.63